sensor_id;sensor_type;location;lat;lon;timestamp;P1;durP1;ratioP1;P2;durP2;ratioP2
79712;SDS011;69206;51.420;5.400;2023-05-16T00:01:10;14.30;;;3.10;;
79712;SDS011;69206;51.420;5.400;2023-05-16T00:03:36;26.03;;;3.63;;
79712;SDS011;69206;51.420;5.400;2023-05-16T00:06:02;26.93;;;3.60;;
79712;SDS011;69206;51.420;5.400;2023-05-16T00:08:29;21.23;;;4.50;;
79712;SDS011;69206;51.420;5.400;2023-05-16T00:10:55;20.33;;;3.30;;
79712;SDS011;69206;51.420;5.400;2023-05-16T00:13:20;22.47;;;4.23;;
79712;SDS011;69206;51.420;5.400;2023-05-16T00:15:49;30.90;;;3.10;;
79712;SDS011;69206;51.420;5.400;2023-05-16T00:18:16;21.05;;;4.07;;
79712;SDS011;69206;51.420;5.400;2023-05-16T00:20:42;24.17;;;3.60;;
79712;SDS011;69206;51.420;5.400;2023-05-16T00:23:07;21.17;;;3.07;;
79712;SDS011;69206;51.420;5.400;2023-05-16T00:25:33;25.63;;;3.33;;
79712;SDS011;69206;51.420;5.400;2023-05-16T00:27:58;11.93;;;2.37;;
79712;SDS011;69206;51.420;5.400;2023-05-16T00:30:24;19.50;;;3.60;;
79712;SDS011;69206;51.420;5.400;2023-05-16T00:32:49;20.87;;;3.67;;
79712;SDS011;69206;51.420;5.400;2023-05-16T00:35:15;19.47;;;3.77;;
79712;SDS011;69206;51.420;5.400;2023-05-16T00:37:40;20.47;;;3.43;;
79712;SDS011;69206;51.420;5.400;2023-05-16T00:40:06;24.33;;;3.23;;
79712;SDS011;69206;51.420;5.400;2023-05-16T00:42:31;16.13;;;2.87;;
79712;SDS011;69206;51.420;5.400;2023-05-16T00:44:57;16.67;;;3.30;;
79712;SDS011;69206;51.420;5.400;2023-05-16T00:47:23;18.70;;;2.67;;
79712;SDS011;69206;51.420;5.400;2023-05-16T00:49:48;11.77;;;2.70;;
79712;SDS011;69206;51.420;5.400;2023-05-16T00:52:14;25.10;;;3.50;;
79712;SDS011;69206;51.420;5.400;2023-05-16T00:54:39;22.70;;;3.43;;
79712;SDS011;69206;51.420;5.400;2023-05-16T00:57:05;17.10;;;3.90;;
79712;SDS011;69206;51.420;5.400;2023-05-16T00:59:31;19.70;;;3.07;;
79712;SDS011;69206;51.420;5.400;2023-05-16T01:01:57;28.97;;;2.83;;
79712;SDS011;69206;51.420;5.400;2023-05-16T01:04:22;16.60;;;3.53;;
79712;SDS011;69206;51.420;5.400;2023-05-16T01:06:48;22.03;;;3.80;;
79712;SDS011;69206;51.420;5.400;2023-05-16T01:09:14;20.80;;;3.63;;
79712;SDS011;69206;51.420;5.400;2023-05-16T01:22:26;17.70;;;2.83;;
79712;SDS011;69206;51.420;5.400;2023-05-16T01:25:11;16.03;;;2.63;;
79712;SDS011;69206;51.420;5.400;2023-05-16T01:27:52;24.97;;;3.47;;
79712;SDS011;69206;51.420;5.400;2023-05-16T01:30:18;23.37;;;3.10;;
79712;SDS011;69206;51.420;5.400;2023-05-16T01:32:44;18.33;;;2.60;;
79712;SDS011;69206;51.420;5.400;2023-05-16T01:35:10;16.53;;;2.50;;
79712;SDS011;69206;51.420;5.400;2023-05-16T01:38:39;32.03;;;2.90;;
79712;SDS011;69206;51.420;5.400;2023-05-16T01:40:51;16.63;;;2.50;;
79712;SDS011;69206;51.420;5.400;2023-05-16T01:43:42;18.67;;;3.07;;
79712;SDS011;69206;51.420;5.400;2023-05-16T01:46:11;11.33;;;2.17;;
79712;SDS011;69206;51.420;5.400;2023-05-16T01:49:14;19.70;;;2.77;;
79712;SDS011;69206;51.420;5.400;2023-05-16T01:51:54;24.00;;;4.30;;
79712;SDS011;69206;51.420;5.400;2023-05-16T01:54:25;18.83;;;3.20;;
79712;SDS011;69206;51.420;5.400;2023-05-16T01:56:55;16.87;;;2.43;;
79712;SDS011;69206;51.420;5.400;2023-05-16T01:59:22;10.93;;;2.63;;
79712;SDS011;69206;51.420;5.400;2023-05-16T02:01:48;20.60;;;2.10;;
79712;SDS011;69206;51.420;5.400;2023-05-16T02:04:17;16.70;;;2.60;;
79712;SDS011;69206;51.420;5.400;2023-05-16T02:06:42;12.90;;;2.90;;
79712;SDS011;69206;51.420;5.400;2023-05-16T02:09:08;14.60;;;2.30;;
79712;SDS011;69206;51.420;5.400;2023-05-16T02:11:33;8.77;;;2.17;;
79712;SDS011;69206;51.420;5.400;2023-05-16T02:13:58;19.80;;;2.30;;
79712;SDS011;69206;51.420;5.400;2023-05-16T02:16:24;15.73;;;2.53;;
79712;SDS011;69206;51.420;5.400;2023-05-16T02:18:49;21.90;;;2.50;;
79712;SDS011;69206;51.420;5.400;2023-05-16T02:21:14;16.17;;;2.37;;
79712;SDS011;69206;51.420;5.400;2023-05-16T02:23:40;26.47;;;3.00;;
79712;SDS011;69206;51.420;5.400;2023-05-16T02:26:05;28.73;;;2.70;;
79712;SDS011;69206;51.420;5.400;2023-05-16T02:28:31;15.63;;;2.47;;
79712;SDS011;69206;51.420;5.400;2023-05-16T02:30:56;17.73;;;2.60;;
79712;SDS011;69206;51.420;5.400;2023-05-16T02:33:23;12.63;;;2.40;;
79712;SDS011;69206;51.420;5.400;2023-05-16T02:35:50;14.63;;;2.27;;
79712;SDS011;69206;51.420;5.400;2023-05-16T02:38:16;11.67;;;2.23;;
79712;SDS011;69206;51.420;5.400;2023-05-16T02:40:41;14.20;;;2.37;;
79712;SDS011;69206;51.420;5.400;2023-05-16T02:43:07;10.27;;;1.90;;
79712;SDS011;69206;51.420;5.400;2023-05-16T02:45:33;28.27;;;2.93;;
79712;SDS011;69206;51.420;5.400;2023-05-16T02:47:58;22.33;;;3.20;;
79712;SDS011;69206;51.420;5.400;2023-05-16T02:50:23;21.20;;;2.43;;
79712;SDS011;69206;51.420;5.400;2023-05-16T02:52:49;14.93;;;2.53;;
79712;SDS011;69206;51.420;5.400;2023-05-16T02:55:15;14.40;;;3.70;;
79712;SDS011;69206;51.420;5.400;2023-05-16T02:57:40;14.53;;;2.70;;
79712;SDS011;69206;51.420;5.400;2023-05-16T03:00:05;15.57;;;2.70;;
79712;SDS011;69206;51.420;5.400;2023-05-16T03:02:34;17.33;;;2.53;;
79712;SDS011;69206;51.420;5.400;2023-05-16T03:05:00;17.90;;;3.10;;
79712;SDS011;69206;51.420;5.400;2023-05-16T03:07:25;18.23;;;2.57;;
79712;SDS011;69206;51.420;5.400;2023-05-16T03:09:50;16.80;;;2.00;;
79712;SDS011;69206;51.420;5.400;2023-05-16T03:12:16;22.03;;;2.17;;
79712;SDS011;69206;51.420;5.400;2023-05-16T03:14:41;14.83;;;2.03;;
79712;SDS011;69206;51.420;5.400;2023-05-16T03:17:07;17.37;;;2.53;;
79712;SDS011;69206;51.420;5.400;2023-05-16T03:19:33;18.27;;;2.87;;
79712;SDS011;69206;51.420;5.400;2023-05-16T03:21:58;19.77;;;2.57;;
79712;SDS011;69206;51.420;5.400;2023-05-16T03:24:24;15.73;;;2.63;;
79712;SDS011;69206;51.420;5.400;2023-05-16T03:26:50;20.20;;;3.03;;
79712;SDS011;69206;51.420;5.400;2023-05-16T03:29:16;18.33;;;3.23;;
79712;SDS011;69206;51.420;5.400;2023-05-16T03:31:41;11.03;;;2.60;;
79712;SDS011;69206;51.420;5.400;2023-05-16T03:34:07;17.50;;;3.13;;
79712;SDS011;69206;51.420;5.400;2023-05-16T03:36:32;18.70;;;3.20;;
79712;SDS011;69206;51.420;5.400;2023-05-16T03:38:57;20.47;;;2.93;;
79712;SDS011;69206;51.420;5.400;2023-05-16T03:41:23;26.27;;;2.67;;
79712;SDS011;69206;51.420;5.400;2023-05-16T03:43:50;17.90;;;3.03;;
79712;SDS011;69206;51.420;5.400;2023-05-16T03:46:15;22.03;;;3.90;;
79712;SDS011;69206;51.420;5.400;2023-05-16T03:48:40;15.90;;;3.10;;
79712;SDS011;69206;51.420;5.400;2023-05-16T03:51:06;25.50;;;3.90;;
79712;SDS011;69206;51.420;5.400;2023-05-16T03:53:31;20.37;;;2.83;;
79712;SDS011;69206;51.420;5.400;2023-05-16T03:55:57;24.87;;;3.10;;
79712;SDS011;69206;51.420;5.400;2023-05-16T03:58:23;16.33;;;2.50;;
79712;SDS011;69206;51.420;5.400;2023-05-16T04:00:48;23.37;;;3.40;;
79712;SDS011;69206;51.420;5.400;2023-05-16T04:03:14;24.20;;;3.43;;
79712;SDS011;69206;51.420;5.400;2023-05-16T04:05:39;15.07;;;2.63;;
79712;SDS011;69206;51.420;5.400;2023-05-16T04:08:04;18.40;;;2.93;;
79712;SDS011;69206;51.420;5.400;2023-05-16T04:10:30;17.97;;;3.53;;
79712;SDS011;69206;51.420;5.400;2023-05-16T04:12:55;12.97;;;2.40;;
79712;SDS011;69206;51.420;5.400;2023-05-16T04:15:21;19.10;;;2.93;;
79712;SDS011;69206;51.420;5.400;2023-05-16T04:17:46;20.27;;;3.17;;
79712;SDS011;69206;51.420;5.400;2023-05-16T04:20:12;15.50;;;3.20;;
79712;SDS011;69206;51.420;5.400;2023-05-16T04:22:37;26.00;;;3.27;;
79712;SDS011;69206;51.420;5.400;2023-05-16T04:25:03;12.17;;;2.80;;
79712;SDS011;69206;51.420;5.400;2023-05-16T04:27:28;17.63;;;2.43;;
79712;SDS011;69206;51.420;5.400;2023-05-16T04:29:54;17.10;;;2.83;;
79712;SDS011;69206;51.420;5.400;2023-05-16T04:32:20;20.57;;;2.87;;
79712;SDS011;69206;51.420;5.400;2023-05-16T04:34:45;15.93;;;2.73;;
79712;SDS011;69206;51.420;5.400;2023-05-16T04:37:12;27.63;;;3.43;;
79712;SDS011;69206;51.420;5.400;2023-05-16T04:39:38;13.50;;;2.97;;
79712;SDS011;69206;51.420;5.400;2023-05-16T04:42:03;16.63;;;2.80;;
79712;SDS011;69206;51.420;5.400;2023-05-16T04:44:29;10.63;;;2.57;;
79712;SDS011;69206;51.420;5.400;2023-05-16T04:46:55;17.97;;;3.60;;
79712;SDS011;69206;51.420;5.400;2023-05-16T04:49:21;11.30;;;2.40;;
79712;SDS011;69206;51.420;5.400;2023-05-16T04:51:47;21.07;;;3.00;;
79712;SDS011;69206;51.420;5.400;2023-05-16T04:54:13;20.50;;;3.80;;
79712;SDS011;69206;51.420;5.400;2023-05-16T04:56:39;19.63;;;3.27;;
79712;SDS011;69206;51.420;5.400;2023-05-16T04:59:04;26.33;;;3.73;;
79712;SDS011;69206;51.420;5.400;2023-05-16T05:01:29;13.80;;;2.47;;
79712;SDS011;69206;51.420;5.400;2023-05-16T05:03:55;22.67;;;2.70;;
79712;SDS011;69206;51.420;5.400;2023-05-16T05:06:20;21.43;;;3.53;;
79712;SDS011;69206;51.420;5.400;2023-05-16T05:08:46;19.83;;;3.40;;
79712;SDS011;69206;51.420;5.400;2023-05-16T05:11:11;18.90;;;3.30;;
79712;SDS011;69206;51.420;5.400;2023-05-16T05:13:37;22.53;;;3.33;;
79712;SDS011;69206;51.420;5.400;2023-05-16T05:16:02;16.77;;;2.83;;
79712;SDS011;69206;51.420;5.400;2023-05-16T05:18:29;11.93;;;2.93;;
79712;SDS011;69206;51.420;5.400;2023-05-16T05:20:54;20.87;;;2.70;;
79712;SDS011;69206;51.420;5.400;2023-05-16T05:23:20;12.80;;;2.13;;
79712;SDS011;69206;51.420;5.400;2023-05-16T05:25:45;18.50;;;3.27;;
79712;SDS011;69206;51.420;5.400;2023-05-16T05:28:11;14.63;;;3.10;;
79712;SDS011;69206;51.420;5.400;2023-05-16T05:30:36;22.70;;;3.13;;
79712;SDS011;69206;51.420;5.400;2023-05-16T05:33:02;17.60;;;3.00;;
79712;SDS011;69206;51.420;5.400;2023-05-16T05:35:27;10.10;;;2.23;;
79712;SDS011;69206;51.420;5.400;2023-05-16T05:37:53;9.77;;;1.98;;
79712;SDS011;69206;51.420;5.400;2023-05-16T05:40:18;10.43;;;2.13;;
79712;SDS011;69206;51.420;5.400;2023-05-16T05:42:43;14.40;;;2.67;;
79712;SDS011;69206;51.420;5.400;2023-05-16T05:45:09;15.15;;;2.13;;
79712;SDS011;69206;51.420;5.400;2023-05-16T05:47:35;15.30;;;2.65;;
79712;SDS011;69206;51.420;5.400;2023-05-16T05:50:02;8.75;;;2.10;;
79712;SDS011;69206;51.420;5.400;2023-05-16T05:52:28;21.88;;;2.65;;
79712;SDS011;69206;51.420;5.400;2023-05-16T05:54:53;12.32;;;2.58;;
79712;SDS011;69206;51.420;5.400;2023-05-16T05:57:19;10.10;;;1.90;;
79712;SDS011;69206;51.420;5.400;2023-05-16T05:59:45;11.50;;;2.73;;
79712;SDS011;69206;51.420;5.400;2023-05-16T06:02:10;20.33;;;2.27;;
79712;SDS011;69206;51.420;5.400;2023-05-16T06:04:36;18.30;;;3.00;;
79712;SDS011;69206;51.420;5.400;2023-05-16T06:07:01;25.37;;;2.70;;
79712;SDS011;69206;51.420;5.400;2023-05-16T06:09:27;14.57;;;2.13;;
79712;SDS011;69206;51.420;5.400;2023-05-16T06:11:52;23.03;;;2.87;;
79712;SDS011;69206;51.420;5.400;2023-05-16T06:14:18;15.10;;;2.03;;
79712;SDS011;69206;51.420;5.400;2023-05-16T06:16:44;12.60;;;2.40;;
79712;SDS011;69206;51.420;5.400;2023-05-16T06:19:09;20.00;;;2.60;;
79712;SDS011;69206;51.420;5.400;2023-05-16T06:21:36;17.67;;;3.00;;
79712;SDS011;69206;51.420;5.400;2023-05-16T06:24:02;11.63;;;1.90;;
79712;SDS011;69206;51.420;5.400;2023-05-16T06:26:27;10.07;;;1.63;;
79712;SDS011;69206;51.420;5.400;2023-05-16T06:28:52;9.23;;;1.93;;
79712;SDS011;69206;51.420;5.400;2023-05-16T06:31:18;9.67;;;2.40;;
79712;SDS011;69206;51.420;5.400;2023-05-16T06:33:43;12.83;;;2.30;;
79712;SDS011;69206;51.420;5.400;2023-05-16T06:36:08;16.10;;;1.90;;
79712;SDS011;69206;51.420;5.400;2023-05-16T06:38:34;11.10;;;1.97;;
79712;SDS011;69206;51.420;5.400;2023-05-16T06:40:59;22.97;;;2.00;;
79712;SDS011;69206;51.420;5.400;2023-05-16T06:43:25;20.67;;;1.80;;
79712;SDS011;69206;51.420;5.400;2023-05-16T06:45:50;16.37;;;1.73;;
79712;SDS011;69206;51.420;5.400;2023-05-16T06:48:16;12.03;;;2.07;;
79712;SDS011;69206;51.420;5.400;2023-05-16T06:50:46;15.97;;;1.93;;
79712;SDS011;69206;51.420;5.400;2023-05-16T06:53:13;13.27;;;2.30;;
79712;SDS011;69206;51.420;5.400;2023-05-16T06:55:38;10.20;;;1.50;;
79712;SDS011;69206;51.420;5.400;2023-05-16T06:58:04;11.90;;;1.93;;
79712;SDS011;69206;51.420;5.400;2023-05-16T07:00:29;11.03;;;1.90;;
79712;SDS011;69206;51.420;5.400;2023-05-16T07:02:55;12.02;;;1.98;;
79712;SDS011;69206;51.420;5.400;2023-05-16T07:05:20;10.93;;;1.80;;
79712;SDS011;69206;51.420;5.400;2023-05-16T07:07:46;12.32;;;1.92;;
79712;SDS011;69206;51.420;5.400;2023-05-16T07:10:13;9.85;;;1.55;;
79712;SDS011;69206;51.420;5.400;2023-05-16T07:12:40;18.33;;;1.98;;
79712;SDS011;69206;51.420;5.400;2023-05-16T07:15:06;8.43;;;1.50;;
79712;SDS011;69206;51.420;5.400;2023-05-16T07:17:32;7.70;;;1.60;;
79712;SDS011;69206;51.420;5.400;2023-05-16T07:19:57;17.33;;;1.77;;
79712;SDS011;69206;51.420;5.400;2023-05-16T07:22:22;11.10;;;1.50;;
79712;SDS011;69206;51.420;5.400;2023-05-16T07:24:48;10.75;;;2.00;;
79712;SDS011;69206;51.420;5.400;2023-05-16T07:27:13;4.82;;;1.23;;
79712;SDS011;69206;51.420;5.400;2023-05-16T07:29:39;11.43;;;1.30;;
79712;SDS011;69206;51.420;5.400;2023-05-16T07:32:05;9.40;;;1.58;;
79712;SDS011;69206;51.420;5.400;2023-05-16T07:34:31;7.57;;;1.40;;
79712;SDS011;69206;51.420;5.400;2023-05-16T07:36:56;11.07;;;2.35;;
79712;SDS011;69206;51.420;5.400;2023-05-16T07:39:22;9.52;;;1.48;;
79712;SDS011;69206;51.420;5.400;2023-05-16T07:41:47;9.52;;;1.27;;
79712;SDS011;69206;51.420;5.400;2023-05-16T07:44:12;5.85;;;1.13;;
79712;SDS011;69206;51.420;5.400;2023-05-16T07:46:38;6.85;;;1.20;;
79712;SDS011;69206;51.420;5.400;2023-05-16T07:49:03;8.93;;;1.40;;
79712;SDS011;69206;51.420;5.400;2023-05-16T07:51:28;9.30;;;1.70;;
79712;SDS011;69206;51.420;5.400;2023-05-16T07:53:54;14.43;;;1.55;;
79712;SDS011;69206;51.420;5.400;2023-05-16T07:56:20;9.10;;;1.05;;
79712;SDS011;69206;51.420;5.400;2023-05-16T07:58:46;4.32;;;1.10;;
79712;SDS011;69206;51.420;5.400;2023-05-16T08:01:12;14.32;;;1.30;;
79712;SDS011;69206;51.420;5.400;2023-05-16T08:03:38;6.45;;;1.15;;
79712;SDS011;69206;51.420;5.400;2023-05-16T08:06:03;9.05;;;1.35;;
79712;SDS011;69206;51.420;5.400;2023-05-16T08:08:29;7.78;;;1.20;;
79712;SDS011;69206;51.420;5.400;2023-05-16T08:10:55;7.47;;;1.10;;
79712;SDS011;69206;51.420;5.400;2023-05-16T08:13:20;12.43;;;1.25;;
79712;SDS011;69206;51.420;5.400;2023-05-16T08:15:46;6.35;;;1.17;;
79712;SDS011;69206;51.420;5.400;2023-05-16T08:18:12;11.52;;;2.20;;
79712;SDS011;69206;51.420;5.400;2023-05-16T08:20:39;10.98;;;2.20;;
79712;SDS011;69206;51.420;5.400;2023-05-16T08:23:05;6.45;;;1.33;;
79712;SDS011;69206;51.420;5.400;2023-05-16T08:25:31;5.03;;;1.20;;
79712;SDS011;69206;51.420;5.400;2023-05-16T08:27:56;6.20;;;1.70;;
79712;SDS011;69206;51.420;5.400;2023-05-16T08:30:22;7.85;;;1.38;;
79712;SDS011;69206;51.420;5.400;2023-05-16T08:32:48;8.90;;;1.30;;
79712;SDS011;69206;51.420;5.400;2023-05-16T08:35:13;12.90;;;1.88;;
79712;SDS011;69206;51.420;5.400;2023-05-16T08:37:38;9.30;;;1.10;;
79712;SDS011;69206;51.420;5.400;2023-05-16T08:40:08;5.78;;;1.20;;
79712;SDS011;69206;51.420;5.400;2023-05-16T08:42:34;7.63;;;1.63;;
79712;SDS011;69206;51.420;5.400;2023-05-16T08:45:00;8.05;;;1.17;;
79712;SDS011;69206;51.420;5.400;2023-05-16T08:47:26;10.20;;;1.27;;
79712;SDS011;69206;51.420;5.400;2023-05-16T08:49:55;5.30;;;1.08;;
79712;SDS011;69206;51.420;5.400;2023-05-16T08:52:22;5.65;;;1.40;;
79712;SDS011;69206;51.420;5.400;2023-05-16T08:54:52;13.55;;;1.83;;
79712;SDS011;69206;51.420;5.400;2023-05-16T08:57:18;6.03;;;1.10;;
79712;SDS011;69206;51.420;5.400;2023-05-16T08:59:45;8.05;;;1.17;;
79712;SDS011;69206;51.420;5.400;2023-05-16T09:02:11;6.60;;;1.83;;
79712;SDS011;69206;51.420;5.400;2023-05-16T09:04:37;9.98;;;1.17;;
79712;SDS011;69206;51.420;5.400;2023-05-16T09:07:02;5.75;;;1.20;;
79712;SDS011;69206;51.420;5.400;2023-05-16T09:09:28;6.38;;;1.40;;
79712;SDS011;69206;51.420;5.400;2023-05-16T09:11:54;7.63;;;1.40;;
79712;SDS011;69206;51.420;5.400;2023-05-16T09:14:20;9.10;;;1.80;;
79712;SDS011;69206;51.420;5.400;2023-05-16T09:16:52;7.68;;;1.60;;
79712;SDS011;69206;51.420;5.400;2023-05-16T09:19:31;9.73;;;1.27;;
79712;SDS011;69206;51.420;5.400;2023-05-16T09:22:10;5.88;;;1.40;;
79712;SDS011;69206;51.420;5.400;2023-05-16T09:24:44;6.35;;;1.20;;
79712;SDS011;69206;51.420;5.400;2023-05-16T09:27:10;5.63;;;1.08;;
79712;SDS011;69206;51.420;5.400;2023-05-16T09:29:41;7.43;;;1.55;;
79712;SDS011;69206;51.420;5.400;2023-05-16T09:32:14;5.95;;;1.20;;
79712;SDS011;69206;51.420;5.400;2023-05-16T09:34:44;6.35;;;1.55;;
79712;SDS011;69206;51.420;5.400;2023-05-16T09:37:12;4.70;;;1.20;;
79712;SDS011;69206;51.420;5.400;2023-05-16T09:39:38;4.78;;;1.40;;
79712;SDS011;69206;51.420;5.400;2023-05-16T09:42:09;10.77;;;1.70;;
79712;SDS011;69206;51.420;5.400;2023-05-16T09:44:36;6.95;;;1.30;;
79712;SDS011;69206;51.420;5.400;2023-05-16T09:47:02;4.80;;;1.33;;
79712;SDS011;69206;51.420;5.400;2023-05-16T09:49:27;7.78;;;1.42;;
79712;SDS011;69206;51.420;5.400;2023-05-16T09:51:52;4.45;;;1.40;;
79712;SDS011;69206;51.420;5.400;2023-05-16T09:54:31;4.35;;;0.98;;
79712;SDS011;69206;51.420;5.400;2023-05-16T09:56:57;5.50;;;1.38;;
79712;SDS011;69206;51.420;5.400;2023-05-16T09:59:23;5.50;;;1.15;;
79712;SDS011;69206;51.420;5.400;2023-05-16T10:01:48;5.05;;;1.20;;
79712;SDS011;69206;51.420;5.400;2023-05-16T10:04:15;10.15;;;1.23;;
79712;SDS011;69206;51.420;5.400;2023-05-16T10:06:40;6.43;;;1.20;;
79712;SDS011;69206;51.420;5.400;2023-05-16T10:09:10;6.75;;;1.15;;
79712;SDS011;69206;51.420;5.400;2023-05-16T10:11:37;4.85;;;1.13;;
79712;SDS011;69206;51.420;5.400;2023-05-16T10:14:05;6.95;;;1.42;;
79712;SDS011;69206;51.420;5.400;2023-05-16T10:16:32;5.68;;;1.30;;
79712;SDS011;69206;51.420;5.400;2023-05-16T10:18:59;8.45;;;1.13;;
79712;SDS011;69206;51.420;5.400;2023-05-16T10:21:26;3.72;;;0.95;;
79712;SDS011;69206;51.420;5.400;2023-05-16T10:23:53;7.55;;;1.25;;
79712;SDS011;69206;51.420;5.400;2023-05-16T10:26:22;5.13;;;1.23;;
79712;SDS011;69206;51.420;5.400;2023-05-16T10:28:49;5.95;;;1.48;;
79712;SDS011;69206;51.420;5.400;2023-05-16T10:31:15;4.75;;;0.77;;
79712;SDS011;69206;51.420;5.400;2023-05-16T10:33:40;5.95;;;0.93;;
79712;SDS011;69206;51.420;5.400;2023-05-16T10:36:09;5.50;;;1.23;;
79712;SDS011;69206;51.420;5.400;2023-05-16T10:38:36;3.63;;;0.90;;
79712;SDS011;69206;51.420;5.400;2023-05-16T10:41:02;6.90;;;1.15;;
79712;SDS011;69206;51.420;5.400;2023-05-16T10:43:29;3.58;;;1.23;;
79712;SDS011;69206;51.420;5.400;2023-05-16T10:45:55;8.00;;;1.20;;
79712;SDS011;69206;51.420;5.400;2023-05-16T10:48:32;6.80;;;1.45;;
79712;SDS011;69206;51.420;5.400;2023-05-16T10:50:58;9.25;;;1.58;;
79712;SDS011;69206;51.420;5.400;2023-05-16T10:53:31;4.35;;;0.90;;
79712;SDS011;69206;51.420;5.400;2023-05-16T11:16:59;12.45;;;1.30;;
79712;SDS011;69206;51.420;5.400;2023-05-16T11:19:29;6.90;;;1.35;;
79712;SDS011;69206;51.420;5.400;2023-05-16T11:22:09;4.95;;;1.08;;
79712;SDS011;69206;51.420;5.400;2023-05-16T11:24:48;7.57;;;1.73;;
79712;SDS011;69206;51.420;5.400;2023-05-16T11:27:44;5.57;;;1.10;;
79712;SDS011;69206;51.420;5.400;2023-05-16T11:30:11;5.30;;;1.15;;
79712;SDS011;69206;51.420;5.400;2023-05-16T11:32:38;5.13;;;1.45;;
79712;SDS011;69206;51.420;5.400;2023-05-16T11:35:05;4.75;;;1.15;;
79712;SDS011;69206;51.420;5.400;2023-05-16T11:37:33;5.88;;;1.20;;
79712;SDS011;69206;51.420;5.400;2023-05-16T11:40:00;5.40;;;1.20;;
79712;SDS011;69206;51.420;5.400;2023-05-16T11:42:33;8.70;;;1.55;;
79712;SDS011;69206;51.420;5.400;2023-05-16T11:45:04;5.50;;;1.10;;
79712;SDS011;69206;51.420;5.400;2023-05-16T11:47:37;6.97;;;1.25;;
79712;SDS011;69206;51.420;5.400;2023-05-16T11:50:10;5.00;;;1.17;;
79712;SDS011;69206;51.420;5.400;2023-05-16T11:52:38;13.00;;;1.48;;
79712;SDS011;69206;51.420;5.400;2023-05-16T11:55:07;4.70;;;1.30;;
79712;SDS011;69206;51.420;5.400;2023-05-16T11:57:37;9.88;;;1.45;;
79712;SDS011;69206;51.420;5.400;2023-05-16T12:00:16;8.27;;;1.80;;
79712;SDS011;69206;51.420;5.400;2023-05-16T12:02:46;6.70;;;1.08;;
79712;SDS011;69206;51.420;5.400;2023-05-16T12:05:13;12.98;;;1.52;;
79712;SDS011;69206;51.420;5.400;2023-05-16T12:07:42;5.82;;;1.48;;
79712;SDS011;69206;51.420;5.400;2023-05-16T12:10:08;7.07;;;1.35;;
79712;SDS011;69206;51.420;5.400;2023-05-16T12:12:35;4.88;;;1.30;;
79712;SDS011;69206;51.420;5.400;2023-05-16T12:15:03;6.72;;;1.25;;
79712;SDS011;69206;51.420;5.400;2023-05-16T12:17:31;7.97;;;1.42;;
79712;SDS011;69206;51.420;5.400;2023-05-16T12:19:57;3.97;;;1.45;;
79712;SDS011;69206;51.420;5.400;2023-05-16T12:22:23;12.60;;;1.60;;
79712;SDS011;69206;51.420;5.400;2023-05-16T12:24:49;4.20;;;1.20;;
79712;SDS011;69206;51.420;5.400;2023-05-16T12:27:21;9.48;;;1.55;;
79712;SDS011;69206;51.420;5.400;2023-05-16T12:29:48;6.70;;;1.40;;
79712;SDS011;69206;51.420;5.400;2023-05-16T12:32:17;7.20;;;1.38;;
79712;SDS011;69206;51.420;5.400;2023-05-16T12:34:47;7.15;;;1.27;;
79712;SDS011;69206;51.420;5.400;2023-05-16T12:37:15;8.82;;;1.30;;
79712;SDS011;69206;51.420;5.400;2023-05-16T12:39:40;5.22;;;1.15;;
79712;SDS011;69206;51.420;5.400;2023-05-16T12:42:06;4.70;;;1.00;;
79712;SDS011;69206;51.420;5.400;2023-05-16T12:44:33;10.13;;;1.20;;
79712;SDS011;69206;51.420;5.400;2023-05-16T12:47:00;7.22;;;1.55;;
79712;SDS011;69206;51.420;5.400;2023-05-16T12:49:26;6.68;;;1.20;;
79712;SDS011;69206;51.420;5.400;2023-05-16T12:51:52;7.80;;;1.65;;
79712;SDS011;69206;51.420;5.400;2023-05-16T12:54:19;5.30;;;1.10;;
79712;SDS011;69206;51.420;5.400;2023-05-16T12:56:47;8.43;;;1.25;;
79712;SDS011;69206;51.420;5.400;2023-05-16T12:59:12;5.60;;;1.35;;
79712;SDS011;69206;51.420;5.400;2023-05-16T13:01:38;5.47;;;1.15;;
79712;SDS011;69206;51.420;5.400;2023-05-16T13:04:04;5.32;;;1.20;;
79712;SDS011;69206;51.420;5.400;2023-05-16T13:06:31;7.88;;;1.40;;
79712;SDS011;69206;51.420;5.400;2023-05-16T13:08:56;4.03;;;1.30;;
79712;SDS011;69206;51.420;5.400;2023-05-16T13:11:22;8.77;;;1.75;;
79712;SDS011;69206;51.420;5.400;2023-05-16T13:13:48;6.40;;;1.35;;
79712;SDS011;69206;51.420;5.400;2023-05-16T13:16:14;10.15;;;1.20;;
79712;SDS011;69206;51.420;5.400;2023-05-16T13:18:39;8.80;;;1.60;;
79712;SDS011;69206;51.420;5.400;2023-05-16T13:21:05;5.38;;;1.67;;
79712;SDS011;69206;51.420;5.400;2023-05-16T13:23:30;7.03;;;1.45;;
79712;SDS011;69206;51.420;5.400;2023-05-16T13:25:56;3.47;;;1.10;;
79712;SDS011;69206;51.420;5.400;2023-05-16T13:28:23;9.07;;;1.42;;
79712;SDS011;69206;51.420;5.400;2023-05-16T13:30:48;9.30;;;1.27;;
79712;SDS011;69206;51.420;5.400;2023-05-16T13:33:15;4.65;;;1.20;;
79712;SDS011;69206;51.420;5.400;2023-05-16T13:35:40;8.57;;;2.72;;
79712;SDS011;69206;51.420;5.400;2023-05-16T13:38:06;7.60;;;1.77;;
79712;SDS011;69206;51.420;5.400;2023-05-16T13:40:31;7.82;;;1.90;;
79712;SDS011;69206;51.420;5.400;2023-05-16T13:42:56;8.20;;;1.42;;
79712;SDS011;69206;51.420;5.400;2023-05-16T13:45:22;6.63;;;1.65;;
79712;SDS011;69206;51.420;5.400;2023-05-16T13:47:47;6.90;;;1.67;;
79712;SDS011;69206;51.420;5.400;2023-05-16T13:50:13;5.90;;;1.42;;
79712;SDS011;69206;51.420;5.400;2023-05-16T13:52:38;5.60;;;1.10;;
79712;SDS011;69206;51.420;5.400;2023-05-16T13:55:04;4.72;;;1.15;;
79712;SDS011;69206;51.420;5.400;2023-05-16T13:57:31;6.97;;;1.45;;
79712;SDS011;69206;51.420;5.400;2023-05-16T13:59:57;5.18;;;1.38;;
79712;SDS011;69206;51.420;5.400;2023-05-16T14:02:23;7.90;;;1.60;;
79712;SDS011;69206;51.420;5.400;2023-05-16T14:04:50;5.53;;;1.35;;
79712;SDS011;69206;51.420;5.400;2023-05-16T14:07:16;5.57;;;1.70;;
79712;SDS011;69206;51.420;5.400;2023-05-16T14:09:42;6.53;;;1.50;;
79712;SDS011;69206;51.420;5.400;2023-05-16T14:12:08;7.05;;;1.17;;
79712;SDS011;69206;51.420;5.400;2023-05-16T14:14:34;8.23;;;1.65;;
79712;SDS011;69206;51.420;5.400;2023-05-16T14:16:59;7.07;;;1.48;;
79712;SDS011;69206;51.420;5.400;2023-05-16T14:19:25;3.78;;;1.40;;
79712;SDS011;69206;51.420;5.400;2023-05-16T14:21:50;10.25;;;1.42;;
79712;SDS011;69206;51.420;5.400;2023-05-16T14:24:16;7.18;;;1.70;;
79712;SDS011;69206;51.420;5.400;2023-05-16T14:26:41;7.32;;;2.15;;
79712;SDS011;69206;51.420;5.400;2023-05-16T14:29:06;5.82;;;1.58;;
79712;SDS011;69206;51.420;5.400;2023-05-16T14:31:32;9.75;;;1.58;;
79712;SDS011;69206;51.420;5.400;2023-05-16T14:34:00;10.57;;;1.63;;
79712;SDS011;69206;51.420;5.400;2023-05-16T14:36:25;7.55;;;1.75;;
79712;SDS011;69206;51.420;5.400;2023-05-16T14:38:50;7.85;;;1.33;;
79712;SDS011;69206;51.420;5.400;2023-05-16T14:41:16;11.75;;;1.63;;
79712;SDS011;69206;51.420;5.400;2023-05-16T14:43:42;2.25;;;1.10;;
79712;SDS011;69206;51.420;5.400;2023-05-16T14:46:08;3.63;;;1.15;;
79712;SDS011;69206;51.420;5.400;2023-05-16T14:48:34;17.63;;;1.67;;
79712;SDS011;69206;51.420;5.400;2023-05-16T14:51:00;9.43;;;1.73;;
79712;SDS011;69206;51.420;5.400;2023-05-16T14:53:25;3.83;;;0.88;;
79712;SDS011;69206;51.420;5.400;2023-05-16T14:55:51;4.03;;;1.10;;
79712;SDS011;69206;51.420;5.400;2023-05-16T14:58:16;6.40;;;1.20;;
79712;SDS011;69206;51.420;5.400;2023-05-16T15:00:42;7.68;;;1.17;;
79712;SDS011;69206;51.420;5.400;2023-05-16T15:03:07;5.55;;;1.20;;
79712;SDS011;69206;51.420;5.400;2023-05-16T15:05:32;10.60;;;1.63;;
79712;SDS011;69206;51.420;5.400;2023-05-16T15:07:58;11.68;;;1.77;;
79712;SDS011;69206;51.420;5.400;2023-05-16T15:10:24;4.40;;;1.17;;